Time;durP1;ratioP1;P1;durP2;ratioP2;P2;SDS_P1;SDS_P2;PMS_P1;PMS_P2;Temp;Humidity;BMP_temperature;BMP_pressure;BME280_temperature;BME280_humidity;BME280_pressure;Samples;Min_cycle;Max_cycle;Signal;HPM_P1;HPM_P2
2023/07/28 00:02:08;;;;;;;32.17;29.15;;;16.10;95.60;;;;;;5075912;28;20635;-90
2023/07/28 00:04:37;;;;;;;30.67;28.15;;;16.10;95.60;;;;;;5074682;28;20199;-90
2023/07/28 00:07:03;;;;;;;30.05;27.65;;;16.10;95.60;;;;;;5075835;28;20206;-90
2023/07/28 00:09:29;;;;;;;30.80;27.85;;;16.10;95.70;;;;;;5076335;28;20203;-90
2023/07/28 00:11:57;;;;;;;31.40;28.58;;;16.10;95.70;;;;;;5076558;28;20534;-90
2023/07/28 00:14:24;;;;;;;31.38;28.50;;;16.00;95.70;;;;;;5075127;28;20621;-91
2023/07/28 00:16:53;;;;;;;31.05;28.65;;;16.00;95.70;;;;;;5077207;28;20163;-90
2023/07/28 00:19:20;;;;;;;31.25;28.80;;;16.00;95.70;;;;;;5074361;28;20187;-88
2023/07/28 00:21:50;;;;;;;32.13;29.27;;;16.00;95.70;;;;;;5073901;28;20187;-88
2023/07/28 00:24:16;;;;;;;28.13;26.02;;;16.00;95.70;;;;;;5073436;28;20203;-89
2023/07/28 00:26:42;;;;;;;30.73;28.42;;;16.00;95.70;;;;;;5074887;28;20171;-88
2023/07/28 00:29:07;;;;;;;30.73;27.63;;;16.00;95.80;;;;;;5074467;28;20543;-89
2023/07/28 00:31:33;;;;;;;30.63;28.27;;;16.00;95.80;;;;;;5074835;28;20179;-88
2023/07/28 00:33:59;;;;;;;31.88;29.17;;;16.00;95.80;;;;;;5072975;28;20210;-88
2023/07/28 00:36:25;;;;;;;30.80;28.23;;;16.00;95.80;;;;;;5073370;28;20171;-88
2023/07/28 00:38:50;;;;;;;31.17;28.52;;;16.00;95.80;;;;;;5074502;28;20202;-89
2023/07/28 00:41:16;;;;;;;30.85;28.58;;;16.00;95.80;;;;;;5072984;28;20171;-89
2023/07/28 00:43:42;;;;;;;32.17;29.38;;;16.00;95.80;;;;;;5074176;28;20737;-89
2023/07/28 00:46:09;;;;;;;32.60;30.00;;;16.00;95.80;;;;;;5073438;28;20176;-88
2023/07/28 00:48:35;;;;;;;33.40;30.73;;;16.10;95.90;;;;;;5074888;28;20171;-90
2023/07/28 00:51:01;;;;;;;33.85;30.88;;;16.10;95.90;;;;;;5074623;28;20263;-89
2023/07/28 00:53:27;;;;;;;33.95;31.13;;;16.00;95.90;;;;;;5073256;28;20202;-90
2023/07/28 00:55:52;;;;;;;36.15;33.03;;;16.00;95.90;;;;;;5073558;28;20179;-88
2023/07/28 00:58:18;;;;;;;36.25;33.47;;;16.10;95.90;;;;;;5073558;28;20179;-90
2023/07/28 01:00:44;;;;;;;35.13;32.47;;;16.00;95.90;;;;;;5073523;28;20179;-90
2023/07/28 01:03:10;;;;;;;36.42;33.75;;;16.00;95.90;;;;;;5075083;28;20215;-91
2023/07/28 01:05:56;;;;;;;36.42;33.08;;;16.00;95.90;;;;;;5072945;28;20195;-90
2023/07/28 01:08:30;;;;;;;35.42;32.10;;;16.10;95.90;;;;;;5074114;28;20642;-91
2023/07/28 01:10:55;;;;;;;36.80;33.58;;;16.10;95.90;;;;;;5073661;28;20207;-90
2023/07/28 01:13:21;;;;;;;34.17;31.67;;;16.00;95.90;;;;;;5075906;28;20264;-90
2023/07/28 01:15:47;;;;;;;34.25;31.23;;;16.10;95.90;;;;;;5075963;28;20182;-90
2023/07/28 01:18:12;;;;;;;35.90;32.28;;;16.10;95.90;;;;;;5075607;28;20655;-90
2023/07/28 01:20:39;;;;;;;37.97;34.15;;;16.10;95.90;;;;;;5075267;28;20175;-89
2023/07/28 01:23:22;;;;;;;37.60;34.17;;;16.00;95.90;;;;;;5074388;28;20197;-90
2023/07/28 01:26:05;;;;;;;37.97;33.83;;;16.00;95.90;;;;;;5074814;28;20258;-90
2023/07/28 01:28:31;;;;;;;39.63;35.95;;;16.00;96.00;;;;;;5074771;28;20163;-91
2023/07/28 01:30:57;;;;;;;38.55;35.42;;;16.00;95.90;;;;;;5076731;28;20595;-91
2023/07/28 01:33:23;;;;;;;39.75;36.33;;;16.00;95.90;;;;;;5076094;28;20207;-90
2023/07/28 01:35:48;;;;;;;41.30;37.55;;;16.00;95.90;;;;;;5076130;28;20292;-90
2023/07/28 01:38:14;;;;;;;41.70;38.58;;;16.00;95.90;;;;;;5075623;28;20187;-90
2023/07/28 01:40:39;;;;;;;42.17;38.53;;;16.00;96.00;;;;;;5074082;28;20175;-90
2023/07/28 01:43:05;;;;;;;43.22;39.50;;;16.00;96.00;;;;;;5075635;28;20543;-90
2023/07/28 01:45:31;;;;;;;42.75;39.33;;;16.00;96.00;;;;;;5075417;28;20214;-90
2023/07/28 01:47:56;;;;;;;43.92;40.40;;;16.00;96.00;;;;;;5074805;28;20172;-90
2023/07/28 01:50:22;;;;;;;44.15;40.38;;;16.00;96.00;;;;;;5074837;28;20250;-90
2023/07/28 01:52:47;;;;;;;43.65;40.10;;;16.00;96.00;;;;;;5074503;28;20238;-89
2023/07/28 01:55:13;;;;;;;44.60;40.90;;;16.00;96.00;;;;;;5073102;28;20245;-90
2023/07/28 01:57:39;;;;;;;44.45;41.35;;;16.00;96.00;;;;;;5075080;28;20213;-89
2023/07/28 02:00:06;;;;;;;44.83;41.40;;;16.00;96.00;;;;;;5073436;28;20553;-90
2023/07/28 02:02:31;;;;;;;45.83;42.28;;;16.00;96.00;;;;;;5074809;28;20266;-90
2023/07/28 02:04:57;;;;;;;44.88;41.28;;;16.00;96.00;;;;;;5074495;28;20223;-91
2023/07/28 02:07:22;;;;;;;45.63;42.05;;;15.90;96.00;;;;;;5075344;28;20172;-91
2023/07/28 02:09:48;;;;;;;43.80;40.70;;;15.90;95.90;;;;;;5075057;28;20172;-90
2023/07/28 02:12:13;;;;;;;47.63;43.60;;;15.90;95.90;;;;;;5073979;28;20171;-90
2023/07/28 02:14:39;;;;;;;46.90;43.13;;;15.90;95.90;;;;;;5074358;28;20579;-90
2023/07/28 02:17:05;;;;;;;46.40;42.67;;;15.90;95.90;;;;;;5074648;28;20636;-90
2023/07/28 02:19:31;;;;;;;45.15;41.78;;;15.90;95.90;;;;;;5073680;28;20250;-90
2023/07/28 02:21:56;;;;;;;42.50;39.17;;;15.90;96.00;;;;;;5074388;28;20187;-90
2023/07/28 02:24:22;;;;;;;43.55;39.90;;;15.90;95.90;;;;;;5073472;28;20701;-91
2023/07/28 02:26:47;;;;;;;45.38;42.00;;;15.90;96.00;;;;;;5075425;28;20168;-91
2023/07/28 02:29:13;;;;;;;43.75;40.42;;;15.90;96.00;;;;;;5076105;28;20186;-91
2023/07/28 02:31:38;;;;;;;43.70;39.95;;;15.90;96.00;;;;;;5075866;28;20179;-91
2023/07/28 02:34:04;;;;;;;44.40;41.20;;;15.90;96.00;;;;;;5076104;28;20297;-91
2023/07/28 02:36:29;;;;;;;46.22;42.83;;;15.90;96.00;;;;;;5075194;28;20631;-91
2023/07/28 02:38:55;;;;;;;46.72;43.10;;;15.90;96.00;;;;;;5076003;28;20191;-91
2023/07/28 02:41:20;;;;;;;72.97;67.78;;;15.90;96.00;;;;;;5074799;28;20175;-90
2023/07/28 02:43:46;;;;;;;73.97;68.53;;;15.90;96.00;;;;;;5074891;28;20682;-91
2023/07/28 02:46:11;;;;;;;74.22;68.93;;;15.90;96.00;;;;;;5075492;28;20176;-91
2023/07/28 02:48:37;;;;;;;47.65;44.15;;;15.80;96.00;;;;;;5075865;28;20250;-90
2023/07/28 02:51:02;;;;;;;47.30;43.80;;;15.90;96.00;;;;;;5076240;28;20638;-91
2023/07/28 02:53:28;;;;;;;75.43;69.25;;;15.80;96.00;;;;;;5079472;28;20199;-91
2023/07/28 02:55:53;;;;;;;74.28;68.72;;;15.90;96.00;;;;;;5077190;28;20179;-91
2023/07/28 02:58:19;;;;;;;72.72;68.00;;;15.80;96.00;;;;;;5080328;28;20166;-91
2023/07/28 03:00:46;;;;;;;46.67;43.08;;;15.90;96.00;;;;;;5078529;28;20176;-91
2023/07/28 03:03:12;;;;;;;45.53;42.33;;;15.80;96.00;;;;;;5077321;28;20171;-91
2023/07/28 03:05:38;;;;;;;69.85;64.75;;;15.80;96.00;;;;;;5079394;28;20217;-90
2023/07/28 03:08:04;;;;;;;71.45;66.22;;;15.80;96.00;;;;;;5079239;28;20175;-90
2023/07/28 03:10:30;;;;;;;44.08;41.13;;;15.80;96.00;;;;;;5076810;28;20183;-91
2023/07/28 03:12:55;;;;;;;45.70;42.03;;;15.80;96.00;;;;;;5078125;28;20209;-91
2023/07/28 03:15:22;;;;;;;45.15;41.78;;;15.80;96.00;;;;;;5077276;28;20208;-91
2023/07/28 03:17:49;;;;;;;46.13;42.28;;;15.80;96.00;;;;;;5078814;28;20595;-91
2023/07/28 03:20:14;;;;;;;47.15;43.05;;;15.80;96.00;;;;;;5077595;28;20635;-88
2023/07/28 03:22:40;;;;;;;48.25;44.35;;;15.80;96.00;;;;;;5076690;28;20252;-91
2023/07/28 03:25:06;;;;;;;46.67;43.08;;;15.80;96.00;;;;;;5076246;28;20195;-91
2023/07/28 03:27:31;;;;;;;47.15;43.35;;;15.80;96.00;;;;;;5076953;28;20259;-90
2023/07/28 03:29:57;;;;;;;48.05;43.63;;;15.80;96.00;;;;;;5075881;28;20171;-90
2023/07/28 03:32:22;;;;;;;46.58;43.08;;;15.80;96.00;;;;;;5077230;28;20258;-90
2023/07/28 03:34:48;;;;;;;48.08;44.08;;;15.80;96.00;;;;;;5077721;28;20301;-91
2023/07/28 03:37:14;;;;;;;47.38;43.50;;;15.80;96.10;;;;;;5077703;28;20174;-91
2023/07/28 03:39:39;;;;;;;47.10;43.03;;;15.90;96.10;;;;;;5077629;28;20285;-91
2023/07/28 03:42:05;;;;;;;46.40;43.20;;;15.80;96.00;;;;;;5075954;28;20202;-91
2023/07/28 03:44:32;;;;;;;47.17;43.97;;;15.80;96.10;;;;;;5077646;28;20277;-91
2023/07/28 03:46:57;;;;;;;48.08;44.78;;;15.80;96.10;;;;;;5077606;28;20654;-91
2023/07/28 03:49:23;;;;;;;51.58;47.42;;;15.80;96.10;;;;;;5076908;28;20190;-90
2023/07/28 03:51:48;;;;;;;50.58;46.88;;;15.80;96.10;;;;;;5076938;28;20184;-91
2023/07/28 03:54:14;;;;;;;50.28;46.50;;;15.80;96.10;;;;;;5077374;28;20225;-91
2023/07/28 03:56:39;;;;;;;55.50;51.05;;;15.80;96.10;;;;;;5075581;28;20229;-91
2023/07/28 03:59:05;;;;;;;53.95;50.05;;;15.80;96.10;;;;;;5076942;28;20171;-91
2023/07/28 04:01:31;;;;;;;52.45;48.47;;;15.80;96.10;;;;;;5077233;28;20246;-91
2023/07/28 04:03:57;;;;;;;52.47;48.88;;;15.80;96.10;;;;;;5075423;28;20188;-91
2023/07/28 04:06:40;;;;;;;51.65;47.90;;;15.80;96.10;;;;;;5075318;28;20711;-91
2023/07/28 04:09:06;;;;;;;51.15;47.85;;;15.80;96.20;;;;;;5077334;28;20563;-91
2023/07/28 04:11:32;;;;;;;53.95;49.25;;;15.80;96.20;;;;;;5076837;28;20163;-90
2023/07/28 04:13:57;;;;;;;53.90;50.20;;;15.80;96.10;;;;;;5076467;28;20203;-90
2023/07/28 04:16:23;;;;;;;52.42;48.92;;;15.80;96.20;;;;;;5076939;28;20168;-91
2023/07/28 04:18:49;;;;;;;53.17;49.53;;;15.80;96.20;;;;;;5077974;28;20167;-91
2023/07/28 04:21:14;;;;;;;52.50;49.10;;;15.80;96.20;;;;;;5076624;28;20198;-91
2023/07/28 04:23:40;;;;;;;57.13;53.13;;;15.80;96.20;;;;;;5079037;28;20206;-91
2023/07/28 04:26:06;;;;;;;57.45;53.35;;;15.80;96.10;;;;;;5077986;28;20171;-91
2023/07/28 04:28:32;;;;;;;57.17;52.58;;;15.80;96.10;;;;;;5078357;28;20229;-91
2023/07/28 04:30:57;;;;;;;54.53;50.90;;;15.80;96.10;;;;;;5077875;28;20172;-90
2023/07/28 04:33:23;;;;;;;80.07;74.93;;;15.80;96.10;;;;;;5077156;28;20227;-90
2023/07/28 04:35:48;;;;;;;84.03;78.68;;;15.80;96.10;;;;;;5077944;28;20591;-91
2023/07/28 04:38:14;;;;;;;88.28;82.47;;;15.90;96.20;;;;;;5078725;28;20679;-91
2023/07/28 04:40:39;;;;;;;55.65;51.85;;;15.90;96.10;;;;;;5076593;28;20708;-91
2023/07/28 04:43:05;;;;;;;54.72;50.83;;;15.90;96.10;;;;;;5078082;28;20559;-91
2023/07/28 04:45:30;;;;;;;79.65;74.53;;;15.90;96.10;;;;;;5078113;28;20283;-91
2023/07/28 04:47:56;;;;;;;80.18;74.65;;;15.90;96.10;;;;;;5077400;28;20181;-90
2023/07/28 04:50:21;;;;;;;82.28;76.95;;;15.90;96.10;;;;;;5077670;28;20183;-91
2023/07/28 04:52:47;;;;;;;55.20;51.33;;;16.00;96.10;;;;;;5077242;28;20210;-91
2023/07/28 04:55:12;;;;;;;53.75;50.03;;;16.00;96.10;;;;;;5078253;28;20198;-91
2023/07/28 04:57:38;;;;;;;78.78;73.82;;;15.90;96.10;;;;;;5076571;28;20296;-91
2023/07/28 05:00:05;;;;;;;81.25;76.22;;;15.90;96.00;;;;;;5077285;28;20176;-91
2023/07/28 05:02:30;;;;;;;57.13;52.67;;;16.00;96.10;;;;;;5076243;28;20197;-91
2023/07/28 05:04:56;;;;;;;56.35;52.45;;;16.00;96.10;;;;;;5075076;28;20679;-90
2023/07/28 05:07:21;;;;;;;53.75;49.95;;;16.00;96.10;;;;;;5076252;28;20209;-90
2023/07/28 05:09:47;;;;;;;55.50;51.75;;;16.00;96.00;;;;;;5076645;28;20233;-90
2023/07/28 05:12:13;;;;;;;56.03;52.33;;;16.00;96.00;;;;;;5075153;28;20168;-91
2023/07/28 05:14:38;;;;;;;53.88;50.20;;;16.00;96.10;;;;;;5074456;28;20227;-90
2023/07/28 05:17:05;;;;;;;50.10;46.65;;;16.00;96.00;;;;;;5076560;28;20171;-91
2023/07/28 05:19:31;;;;;;;52.85;49.35;;;16.10;96.10;;;;;;5075484;28;20182;-91
2023/07/28 05:21:57;;;;;;;53.80;50.00;;;16.20;96.10;;;;;;5077470;28;20273;-91
2023/07/28 05:24:22;;;;;;;51.85;48.53;;;16.20;96.10;;;;;;5078466;28;20225;-91
2023/07/28 05:26:48;;;;;;;50.60;47.33;;;16.20;96.00;;;;;;5076769;28;20711;-90
2023/07/28 05:29:13;;;;;;;52.38;48.88;;;16.30;96.00;;;;;;5076916;28;20238;-91
2023/07/28 05:31:39;;;;;;;51.55;48.13;;;16.30;96.00;;;;;;5077009;28;20254;-90
2023/07/28 05:34:04;;;;;;;52.55;49.22;;;16.30;96.00;;;;;;5076763;28;20713;-91
2023/07/28 05:36:30;;;;;;;55.15;51.55;;;16.30;96.00;;;;;;5076764;28;20175;-91
2023/07/28 05:38:57;;;;;;;55.60;52.10;;;16.30;96.00;;;;;;5077022;28;20221;-90
2023/07/28 05:41:23;;;;;;;52.38;48.92;;;16.30;95.90;;;;;;5076860;28;20711;-90
2023/07/28 05:43:49;;;;;;;51.72;48.15;;;16.40;95.90;;;;;;5076173;28;20599;-90
2023/07/28 05:46:15;;;;;;;51.30;47.70;;;16.40;96.00;;;;;;5076325;28;20254;-90
2023/07/28 05:48:40;;;;;;;49.55;46.50;;;16.40;96.00;;;;;;5075333;28;20248;-91
2023/07/28 05:51:06;;;;;;;46.65;43.80;;;16.40;95.90;;;;;;5075032;28;20228;-90
2023/07/28 05:53:32;;;;;;;47.65;44.65;;;16.40;95.90;;;;;;5075694;28;20291;-90
2023/07/28 05:55:58;;;;;;;47.85;44.85;;;16.40;95.90;;;;;;5076457;28;20639;-90
2023/07/28 05:58:24;;;;;;;49.78;46.67;;;16.40;95.90;;;;;;5075578;28;20285;-91
2023/07/28 06:00:49;;;;;;;48.90;45.63;;;16.50;96.00;;;;;;5076949;28;20171;-90
2023/07/28 06:03:16;;;;;;;50.63;47.42;;;16.50;95.90;;;;;;5077058;28;20179;-91
2023/07/28 06:05:42;;;;;;;51.33;48.13;;;16.50;95.90;;;;;;5078184;28;20249;-91
2023/07/28 06:08:08;;;;;;;51.42;48.33;;;16.50;95.80;;;;;;5078322;28;20646;-91
2023/07/28 06:10:34;;;;;;;52.33;48.92;;;16.50;95.80;;;;;;5078780;28;20258;-91
2023/07/28 06:12:59;;;;;;;52.10;48.90;;;16.50;95.80;;;;;;5078591;28;20701;-91
2023/07/28 06:15:25;;;;;;;55.08;51.55;;;16.50;95.80;;;;;;5080148;28;20183;-91
2023/07/28 06:17:50;;;;;;;53.10;49.90;;;16.60;95.70;;;;;;5081331;28;20172;-91
2023/07/28 06:20:16;;;;;;;56.53;53.13;;;16.60;95.70;;;;;;5081205;28;20203;-92
2023/07/28 06:22:42;;;;;;;57.33;53.90;;;16.60;95.60;;;;;;5077287;28;20282;-91
2023/07/28 06:25:07;;;;;;;57.58;54.08;;;16.60;95.50;;;;;;5080192;28;20597;-91
2023/07/28 06:27:33;;;;;;;56.33;52.53;;;16.70;95.40;;;;;;5081690;28;20171;-91
2023/07/28 06:29:58;;;;;;;57.67;54.17;;;16.70;95.40;;;;;;5085196;28;20183;-92
2023/07/28 06:32:24;;;;;;;53.17;49.95;;;16.80;95.40;;;;;;5084331;28;20195;-91
2023/07/28 06:34:51;;;;;;;52.38;49.17;;;16.70;95.10;;;;;;5085214;28;20231;-91
2023/07/28 06:37:17;;;;;;;53.20;49.90;;;16.80;95.10;;;;;;5081582;28;20168;-92
2023/07/28 06:39:42;;;;;;;54.38;50.97;;;16.80;95.00;;;;;;5081901;28;20176;-91
2023/07/28 06:42:08;;;;;;;56.78;52.83;;;16.80;94.90;;;;;;5082530;28;20174;-91
2023/07/28 06:44:33;;;;;;;55.97;52.58;;;16.90;94.80;;;;;;5086910;28;20200;-92
2023/07/28 06:46:59;;;;;;;52.53;49.28;;;17.00;94.80;;;;;;5085923;28;20183;-92
2023/07/28 06:49:24;;;;;;;54.35;50.85;;;16.90;94.60;;;;;;5084929;28;20254;-92
2023/07/28 06:51:50;;;;;;;51.63;48.33;;;17.00;94.60;;;;;;5086852;28;20178;-93
2023/07/28 06:54:15;;;;;;;50.90;47.72;;;17.00;94.50;;;;;;5087131;28;20215;-92
2023/07/28 06:56:41;;;;;;;48.85;45.75;;;17.00;94.30;;;;;;5086276;28;20183;-92
2023/07/28 06:59:07;;;;;;;51.15;47.75;;;17.00;94.20;;;;;;5086904;28;20167;-92
2023/07/28 07:01:33;;;;;;;50.20;46.53;;;17.00;94.20;;;;;;5087116;28;20246;-92
2023/07/28 07:03:59;;;;;;;47.13;44.17;;;17.00;94.00;;;;;;5086683;28;20200;-92
2023/07/28 07:06:25;;;;;;;47.47;44.45;;;17.00;93.90;;;;;;5082395;28;20175;-90
2023/07/28 07:08:50;;;;;;;49.88;46.65;;;17.10;93.80;;;;;;5077115;28;20179;-91
2023/07/28 07:11:16;;;;;;;46.15;43.35;;;17.20;93.80;;;;;;5075161;28;20175;-90
2023/07/28 07:13:41;;;;;;;47.13;44.17;;;17.20;93.50;;;;;;5074664;28;20207;-90
2023/07/28 07:16:16;;;;;;;45.55;42.65;;;17.20;93.50;;;;;;5075470;28;20172;-90
2023/07/28 07:18:44;;;;;;;47.10;44.20;;;17.30;93.30;;;;;;5075721;28;20194;-90
2023/07/28 07:21:10;;;;;;;46.15;43.00;;;17.30;93.20;;;;;;5075770;28;20184;-92
2023/07/28 07:23:36;;;;;;;49.97;46.88;;;17.30;93.10;;;;;;5074266;28;20245;-90
2023/07/28 07:26:02;;;;;;;70.40;66.10;;;17.40;93.30;;;;;;5074214;28;20249;-89
2023/07/28 07:28:28;;;;;;;70.68;66.40;;;17.50;93.30;;;;;;5074489;28;20266;-91
2023/07/28 07:30:56;;;;;;;68.38;64.28;;;17.50;93.20;;;;;;5075551;28;20206;-91
2023/07/28 07:33:24;;;;;;;46.70;43.80;;;17.40;92.90;;;;;;5074108;28;20290;-91
2023/07/28 07:35:50;;;;;;;42.38;39.78;;;17.50;92.80;;;;;;5075871;28;20168;-91
2023/07/28 07:38:15;;;;;;;67.53;63.33;;;17.50;92.60;;;;;;5074212;28;20189;-91
2023/07/28 07:40:41;;;;;;;66.63;62.25;;;17.60;92.40;;;;;;5075602;28;20175;-90
2023/07/28 07:43:06;;;;;;;63.15;59.35;;;17.60;92.30;;;;;;5074224;28;20723;-91
2023/07/28 07:45:32;;;;;;;45.67;42.78;;;17.60;92.10;;;;;;5074157;28;20195;-91
2023/07/28 07:47:59;;;;;;;43.55;40.75;;;17.70;92.20;;;;;;5074885;28;20193;-91
2023/07/28 07:50:24;;;;;;;41.47;38.67;;;17.80;91.90;;;;;;5074216;28;20171;-92
2023/07/28 07:52:50;;;;;;;39.15;36.65;;;17.70;91.70;;;;;;5073918;28;20613;-91
2023/07/28 07:55:15;;;;;;;37.30;34.95;;;17.70;91.40;;;;;;5074145;28;20232;-91
2023/07/28 07:57:41;;;;;;;38.28;35.88;;;17.70;91.20;;;;;;5074008;28;20229;-91
2023/07/28 08:00:08;;;;;;;40.90;38.40;;;17.80;91.30;;;;;;5074074;28;20712;-92
2023/07/28 08:02:34;;;;;;;54.22;50.92;;;17.90;91.40;;;;;;5075296;28;20164;-92
2023/07/28 08:04:59;;;;;;;51.67;48.55;;;17.90;91.10;;;;;;5073991;28;20264;-91
2023/07/28 08:07:25;;;;;;;53.95;50.65;;;17.90;90.80;;;;;;5074114;28;20205;-91
2023/07/28 08:09:51;;;;;;;36.03;33.42;;;17.90;90.50;;;;;;5074948;28;20271;-92
2023/07/28 08:12:16;;;;;;;35.67;33.47;;;17.90;90.40;;;;;;5074121;28;20233;-93
2023/07/28 08:14:42;;;;;;;56.15;52.70;;;18.00;90.40;;;;;;5074598;28;20206;-92
2023/07/28 08:17:08;;;;;;;55.28;51.85;;;18.10;90.40;;;;;;5074239;28;20175;-93
2023/07/28 08:19:34;;;;;;;57.65;54.13;;;18.10;90.60;;;;;;5074719;28;20179;-93
2023/07/28 08:22:00;;;;;;;32.47;30.48;;;18.10;90.50;;;;;;5074984;28;20626;-92
2023/07/28 08:24:26;;;;;;;33.65;30.95;;;18.10;90.20;;;;;;5081588;28;20678;-92
2023/07/28 08:26:51;;;;;;;50.65;47.50;;;18.00;90.10;;;;;;5083115;28;20229;-92
2023/07/28 08:29:23;;;;;;;50.88;47.78;;;18.10;90.20;;;;;;5083173;28;20214;-93
2023/07/28 08:31:49;;;;;;;31.88;29.98;;;18.00;89.80;;;;;;5080769;28;20176;-92
2023/07/28 08:34:15;;;;;;;32.25;30.13;;;18.10;90.00;;;;;;5080540;28;20242;-92
2023/07/28 08:36:41;;;;;;;30.30;28.40;;;18.10;90.10;;;;;;5077723;28;20817;-92
2023/07/28 08:39:06;;;;;;;32.63;30.60;;;18.20;90.00;;;;;;5085384;28;20183;-93
2023/07/28 08:41:32;;;;;;;33.83;31.30;;;18.20;89.80;;;;;;5082778;28;20180;-92
2023/07/28 08:43:58;;;;;;;32.42;30.48;;;18.20;89.60;;;;;;5079064;28;20199;-92
2023/07/28 08:46:23;;;;;;;29.40;27.60;;;18.20;89.60;;;;;;5085032;28;20171;-92
2023/07/28 08:48:49;;;;;;;33.88;31.27;;;18.20;89.30;;;;;;5085088;28;20639;-92
2023/07/28 08:51:15;;;;;;;33.20;31.00;;;18.30;89.50;;;;;;5083373;28;20175;-92
2023/07/28 08:53:40;;;;;;;34.00;31.88;;;18.30;89.40;;;;;;5084449;28;20207;-93
2023/07/28 08:56:06;;;;;;;33.35;31.25;;;18.30;89.30;;;;;;5083907;28;20206;-92
2023/07/28 08:58:32;;;;;;;33.92;31.73;;;18.30;89.10;;;;;;5082440;28;20195;-92
2023/07/28 09:01:01;;;;;;;33.38;31.38;;;18.30;89.20;;;;;;5082984;28;20175;-93
2023/07/28 09:03:27;;;;;;;33.28;30.90;;;18.40;89.40;;;;;;5084514;28;20171;-92
2023/07/28 09:06:02;;;;;;;32.75;30.67;;;18.50;89.40;;;;;;5082884;28;20214;-92
2023/07/28 09:08:30;;;;;;;32.17;30.17;;;18.50;89.40;;;;;;5079966;28;20213;-92
2023/07/28 09:10:56;;;;;;;31.90;30.00;;;18.50;89.20;;;;;;5080548;28;20175;-92
2023/07/28 09:13:21;;;;;;;32.22;30.23;;;18.50;89.00;;;;;;5081157;28;20191;-92
2023/07/28 09:15:47;;;;;;;28.60;26.67;;;18.70;89.30;;;;;;5085129;28;20261;-92
2023/07/28 09:18:16;;;;;;;27.10;25.40;;;18.60;88.90;;;;;;5083891;28;20195;-92
2023/07/28 09:20:42;;;;;;;29.05;27.25;;;18.50;88.10;;;;;;5081849;28;20187;-92
2023/07/28 09:23:09;;;;;;;29.73;27.92;;;18.50;88.30;;;;;;5080747;28;20179;-92
2023/07/28 09:25:36;;;;;;;28.00;25.77;;;18.60;88.60;;;;;;5084672;28;20202;-93
2023/07/28 09:28:02;;;;;;;28.25;26.35;;;18.60;88.70;;;;;;5085864;28;20239;-93
2023/07/28 09:30:49;;;;;;;26.67;24.95;;;18.60;88.60;;;;;;5083718;28;20179;-94
2023/07/28 09:33:29;;;;;;;25.50;23.95;;;18.70;88.80;;;;;;5083301;28;20199;-92
2023/07/28 09:35:54;;;;;;;26.00;24.40;;;18.80;88.20;;;;;;5083683;28;20217;-91
2023/07/28 09:38:21;;;;;;;27.17;25.38;;;18.80;87.80;;;;;;5083698;28;20172;-93
2023/07/28 09:40:48;;;;;;;26.77;25.08;;;18.80;87.60;;;;;;5077081;28;20178;-92
2023/07/28 09:43:14;;;;;;;29.13;27.33;;;18.70;87.70;;;;;;5077014;28;20186;-92
2023/07/28 09:45:41;;;;;;;26.20;24.50;;;18.70;88.10;;;;;;5076893;28;20176;-92
2023/07/28 09:48:10;;;;;;;26.40;24.73;;;18.80;88.30;;;;;;5076757;28;20179;-93
2023/07/28 09:50:38;;;;;;;26.75;24.90;;;18.70;87.50;;;;;;5077387;28;20175;-92
2023/07/28 09:53:04;;;;;;;26.88;25.10;;;18.70;88.10;;;;;;5076408;28;20267;-92
2023/07/28 09:55:30;;;;;;;26.92;25.13;;;18.40;87.50;;;;;;5074926;28;20626;-91
2023/07/28 09:58:01;;;;;;;23.27;21.60;;;18.40;87.70;;;;;;5076579;28;20174;-92
2023/07/28 10:00:27;;;;;;;25.27;23.67;;;18.60;87.80;;;;;;5075888;28;20190;-91
2023/07/28 10:02:53;;;;;;;24.77;23.17;;;18.80;87.80;;;;;;5083970;28;20171;-92
2023/07/28 10:05:20;;;;;;;25.27;23.63;;;18.90;88.10;;;;;;5090542;28;20205;-92
2023/07/28 10:07:48;;;;;;;23.38;21.88;;;18.90;88.00;;;;;;5082627;28;20178;-92
2023/07/28 10:10:15;;;;;;;23.58;21.75;;;19.10;87.70;;;;;;5087358;28;20172;-92
2023/07/28 10:12:51;;;;;;;26.08;24.17;;;19.10;86.50;;;;;;5086532;28;20175;-92
2023/07/28 10:15:18;;;;;;;26.33;24.63;;;19.20;86.60;;;;;;5086017;28;20202;-93
2023/07/28 10:17:47;;;;;;;24.85;23.20;;;19.40;87.20;;;;;;5078779;28;20195;-92
2023/07/28 10:20:35;;;;;;;23.98;22.30;;;19.40;86.30;;;;;;5079083;28;20172;-92
2023/07/28 10:23:11;;;;;;;23.55;21.95;;;19.60;86.60;;;;;;5078876;28;20194;-92
2023/07/28 10:25:38;;;;;;;25.02;23.42;;;19.70;86.50;;;;;;5078002;28;20231;-91
2023/07/28 10:28:05;;;;;;;25.67;23.80;;;19.80;86.50;;;;;;5075075;28;20206;-91
2023/07/28 10:30:37;;;;;;;25.50;23.48;;;19.80;86.20;;;;;;5077084;28;20792;-92
2023/07/28 10:33:02;;;;;;;24.83;23.20;;;19.80;85.70;;;;;;5075270;28;20234;-91
2023/07/28 10:35:31;;;;;;;25.58;23.88;;;19.90;86.00;;;;;;5076477;28;20218;-91
2023/07/28 10:37:56;;;;;;;25.70;23.98;;;19.90;85.50;;;;;;5076601;28;20168;-91
2023/07/28 10:40:34;;;;;;;26.08;24.38;;;19.70;85.30;;;;;;5079480;28;20241;-91
2023/07/28 10:43:00;;;;;;;25.38;23.67;;;19.50;85.70;;;;;;5077956;28;20167;-91
2023/07/28 10:45:28;;;;;;;23.17;21.77;;;19.60;86.60;;;;;;5077570;28;20190;-91
2023/07/28 10:47:55;;;;;;;23.75;22.15;;;19.70;86.30;;;;;;5076192;28;20270;-92
2023/07/28 10:50:26;;;;;;;23.27;21.77;;;19.70;85.70;;;;;;5077531;28;20243;-91
2023/07/28 10:52:52;;;;;;;22.30;20.90;;;19.70;85.90;;;;;;5077038;28;20222;-91
2023/07/28 10:55:20;;;;;;;21.27;19.98;;;19.70;85.90;;;;;;5076375;28;20191;-92
2023/07/28 10:57:48;;;;;;;22.95;21.30;;;19.90;86.70;;;;;;5084956;28;20198;-92
2023/07/28 11:00:16;;;;;;;23.90;22.25;;;19.80;85.10;;;;;;5082639;28;20175;-92
2023/07/28 11:02:43;;;;;;;21.08;19.77;;;19.80;85.20;;;;;;5079750;28;20202;-94
2023/07/28 11:05:14;;;;;;;22.25;20.85;;;20.00;85.50;;;;;;5081911;28;20191;-92
2023/07/28 11:08:34;;;;;;;23.25;21.65;;;20.20;84.20;;;;;;5082754;28;20163;-92
2023/07/28 11:11:03;;;;;;;21.33;19.92;;;20.20;84.60;;;;;;5047287;28;20211;-93
2023/07/28 11:13:30;;;;;;;20.85;19.55;;;20.20;83.90;;;;;;5080839;28;20203;-93
2023/07/28 11:15:55;;;;;;;20.60;19.25;;;20.40;84.10;;;;;;5077759;28;20171;-93
2023/07/28 11:18:21;;;;;;;20.70;19.33;;;20.70;84.50;;;;;;5077747;28;20183;-92
2023/07/28 11:20:46;;;;;;;21.00;19.70;;;20.70;83.50;;;;;;5042377;28;1092954;-93
2023/07/28 11:23:14;;;;;;;34.38;32.17;;;20.60;82.50;;;;;;5079595;28;20167;-93
2023/07/28 11:25:39;;;;;;;40.63;37.92;;;20.70;82.70;;;;;;5082159;28;20175;-92
2023/07/28 11:28:05;;;;;;;40.88;38.38;;;20.60;82.50;;;;;;5079131;28;20258;-92
2023/07/28 11:30:32;;;;;;;20.90;19.60;;;20.60;82.10;;;;;;5077640;28;20175;-92
2023/07/28 11:32:58;;;;;;;21.13;19.83;;;20.30;82.80;;;;;;5074526;28;20723;-91
2023/07/28 11:35:23;;;;;;;29.52;27.73;;;20.70;82.00;;;;;;5075588;28;20287;-92
2023/07/28 11:37:52;;;;;;;33.78;31.55;;;20.50;81.50;;;;;;5076559;28;20183;-92
2023/07/28 11:40:20;;;;;;;34.05;32.05;;;20.40;81.60;;;;;;5077097;28;20178;-92
2023/07/28 11:42:51;;;;;;;18.85;17.70;;;20.80;83.30;;;;;;5074620;28;20314;-91
2023/07/28 11:45:18;;;;;;;18.48;17.38;;;20.70;82.00;;;;;;5075208;28;20191;-91
2023/07/28 11:48:02;;;;;;;20.10;18.90;;;20.90;82.30;;;;;;5076697;28;20175;-90
2023/07/28 11:50:30;;;;;;;20.58;19.02;;;21.10;82.40;;;;;;5077834;28;20186;-92
2023/07/28 11:52:57;;;;;;;19.52;18.23;;;21.20;81.40;;;;;;5075006;28;20175;-92
2023/07/28 11:55:24;;;;;;;19.17;18.02;;;21.30;82.00;;;;;;5075508;28;20230;-92
2023/07/28 11:57:51;;;;;;;20.83;19.52;;;21.40;81.00;;;;;;5076157;28;20221;-92
2023/07/28 12:00:17;;;;;;;19.45;18.05;;;21.20;79.70;;;;;;5075770;28;20171;-90
2023/07/28 12:02:43;;;;;;;18.80;17.70;;;20.90;81.40;;;;;;5074897;28;20175;-90
2023/07/28 12:05:16;;;;;;;18.40;17.30;;;21.40;81.60;;;;;;5074082;28;20199;-91
2023/07/28 12:07:47;;;;;;;20.75;19.25;;;21.50;81.30;;;;;;5075004;28;20216;-90
2023/07/28 12:10:13;;;;;;;20.20;18.90;;;21.30;79.60;;;;;;5078447;28;20168;-93
2023/07/28 12:12:44;;;;;;;19.77;18.48;;;21.30;79.80;;;;;;5076409;28;20187;-91
2023/07/28 12:15:26;;;;;;;20.00;18.67;;;21.60;80.50;;;;;;5076297;28;20228;-91
2023/07/28 12:18:08;;;;;;;30.98;28.98;;;21.60;79.80;;;;;;5075894;28;20647;-90
2023/07/28 12:20:46;;;;;;;33.15;31.10;;;21.60;81.60;;;;;;5073874;28;20228;-90
2023/07/28 12:23:12;;;;;;;18.73;17.42;;;21.50;80.70;;;;;;5074214;28;20573;-91
2023/07/28 12:25:37;;;;;;;19.67;18.25;;;21.10;80.80;;;;;;5074402;28;20201;-89